createdAt,value
2022-12-29T00:00:55.488Z,0
2022-12-29T00:01:55.566Z,0
2022-12-29T00:02:57.347Z,0
2022-12-29T00:03:57.049Z,0
2022-12-29T00:04:57.102Z,0
2022-12-29T00:05:57.764Z,0
2022-12-29T00:06:59.062Z,0
2022-12-29T00:07:59.608Z,0
2022-12-29T00:08:59.550Z,0
2022-12-29T00:10:00.469Z,0
2022-12-29T00:11:01.088Z,0
2022-12-29T00:12:01.317Z,0
2022-12-29T00:13:02.245Z,0
2022-12-29T00:14:02.776Z,0
2022-12-29T00:15:03.017Z,0
2022-12-29T00:16:03.255Z,0
2022-12-29T00:17:03.836Z,0
2022-12-29T00:18:04.030Z,0
2022-12-29T00:19:04.302Z,0
2022-12-29T00:20:04.802Z,0
2022-12-29T00:21:05.593Z,0
2022-12-29T00:22:06.695Z,0
2022-12-29T00:23:07.322Z,0
2022-12-29T00:24:07.829Z,0
2022-12-29T00:25:07.791Z,0
2022-12-29T00:26:09.084Z,0
2022-12-29T00:27:09.004Z,0
2022-12-29T00:28:17.591Z,0
2022-12-29T00:29:10.626Z,0
2022-12-29T00:30:10.486Z,0
2022-12-29T00:31:11.959Z,0
2022-12-29T00:32:12.680Z,0
2022-12-29T00:33:12.715Z,0
2022-12-29T00:34:13.201Z,0
2022-12-29T00:35:13.068Z,0
2022-12-29T00:36:13.295Z,0
2022-12-29T00:37:14.216Z,0
2022-12-29T00:38:14.863Z,0
2022-12-29T00:39:15.067Z,0
2022-12-29T00:40:15.555Z,0
2022-12-29T00:41:15.593Z,0
2022-12-29T00:42:16.833Z,0
2022-12-29T00:43:17.285Z,0
2022-12-29T00:44:18.353Z,0
2022-12-29T00:45:18.462Z,0
2022-12-29T00:46:26.041Z,0
2022-12-29T00:47:19.966Z,0
2022-12-29T00:48:20.226Z,0
2022-12-29T00:49:20.422Z,0
2022-12-29T00:50:21.117Z,0
2022-12-29T00:51:24.150Z,0
2022-12-29T00:52:22.528Z,0
2022-12-29T00:53:23.302Z,0
2022-12-29T00:54:24.210Z,0
2022-12-29T00:55:24.701Z,0
2022-12-29T00:56:24.910Z,0
2022-12-29T00:57:25.563Z,0
2022-12-29T00:58:26.490Z,0
2022-12-29T00:59:29.135Z,0
2022-12-29T01:00:28.395Z,0
2022-12-29T01:01:29.363Z,0
2022-12-29T01:02:30.411Z,0
2022-12-29T01:03:30.776Z,0
2022-12-29T01:04:31.022Z,0
2022-12-29T01:05:31.034Z,0
2022-12-29T01:06:31.694Z,0
2022-12-29T01:07:32.781Z,0
2022-12-29T01:08:33.341Z,0
2022-12-29T01:09:34.260Z,0
2022-12-29T01:10:33.908Z,0
2022-12-29T01:11:34.641Z,0
2022-12-29T01:12:34.862Z,0
2022-12-29T01:13:35.591Z,0
2022-12-29T01:14:35.803Z,0
2022-12-29T01:15:37.100Z,0
2022-12-29T01:16:37.785Z,0
2022-12-29T01:17:38.248Z,0
2022-12-29T01:18:38.463Z,0
2022-12-29T01:19:39.679Z,0
2022-12-29T01:20:39.640Z,0
2022-12-29T01:21:40.602Z,0
2022-12-29T01:22:41.172Z,0
2022-12-29T01:23:41.431Z,0
2022-12-29T01:24:41.740Z,0
2022-12-29T01:25:41.965Z,0
2022-12-29T01:26:42.210Z,0
2022-12-29T01:27:44.095Z,0
2022-12-29T01:28:44.056Z,0
2022-12-29T01:29:43.699Z,0
2022-12-29T01:30:44.669Z,0
2022-12-29T01:31:45.165Z,0
2022-12-29T01:32:46.247Z,0
2022-12-29T01:33:46.502Z,0
2022-12-29T01:34:46.145Z,0
2022-12-29T01:35:47.358Z,0
2022-12-29T01:36:48.293Z,0
2022-12-29T01:37:48.549Z,0
2022-12-29T01:38:48.809Z,0
2022-12-29T01:39:49.470Z,0
2022-12-29T01:40:50.711Z,0
2022-12-29T01:41:52.038Z,0
2022-12-29T01:42:52.533Z,0
2022-12-29T01:43:52.794Z,0
2022-12-29T01:44:53.839Z,0
2022-12-29T01:45:55.243Z,0
2022-12-29T01:46:55.723Z,0
2022-12-29T01:47:56.647Z,0
2022-12-29T01:48:57.174Z,0
2022-12-29T01:49:57.577Z,0
2022-12-29T01:50:58.797Z,0
2022-12-29T01:51:59.270Z,0
2022-12-29T01:52:59.860Z,0
2022-12-29T01:54:00.419Z,0
2022-12-29T01:55:00.094Z,0
2022-12-29T01:56:01.290Z,0
2022-12-29T01:57:02.181Z,0
2022-12-29T01:58:02.400Z,0
2022-12-29T01:59:02.322Z,0
2022-12-29T02:00:03.276Z,0
2022-12-29T02:01:04.811Z,0
2022-12-29T02:02:05.325Z,0
2022-12-29T02:03:05.102Z,0
2022-12-29T02:04:05.454Z,0
2022-12-29T02:05:10.984Z,0
2022-12-29T02:06:07.400Z,0
2022-12-29T02:07:07.617Z,0
2022-12-29T02:08:08.290Z,0
2022-12-29T02:09:09.836Z,0
2022-12-29T02:10:09.835Z,0
2022-12-29T02:11:11.051Z,0
2022-12-29T02:12:11.468Z,0
2022-12-29T02:13:13.274Z,0
2022-12-29T02:14:15.143Z,0
2022-12-29T02:15:13.980Z,0
2022-12-29T02:16:15.223Z,0
2022-12-29T02:17:14.702Z,0
2022-12-29T02:18:16.219Z,0
2022-12-29T02:19:16.206Z,0
2022-12-29T02:20:17.154Z,0
2022-12-29T02:21:17.368Z,0
2022-12-29T02:22:19.093Z,0
2022-12-29T02:23:19.525Z,0
2022-12-29T02:24:20.464Z,0
2022-12-29T02:25:20.671Z,0
2022-12-29T02:26:21.003Z,0
2022-12-29T02:27:22.455Z,0
2022-12-29T02:28:24.127Z,0
2022-12-29T02:29:24.088Z,0
2022-12-29T02:30:24.032Z,0
2022-12-29T02:31:25.927Z,0
2022-12-29T02:32:25.668Z,0
2022-12-29T02:33:26.862Z,0
2022-12-29T02:34:27.248Z,0
2022-12-29T02:35:29.235Z,0
2022-12-29T02:36:29.768Z,0
2022-12-29T02:37:29.696Z,0
2022-12-29T02:38:30.974Z,0
2022-12-29T02:39:31.508Z,0
2022-12-29T02:40:32.163Z,0
2022-12-29T02:41:32.806Z,0
2022-12-29T02:42:33.842Z,0
2022-12-29T02:43:34.377Z,0
2022-12-29T02:44:34.983Z,0
2022-12-29T02:45:35.362Z,0
2022-12-29T02:46:36.253Z,0
2022-12-29T02:47:35.943Z,0
2022-12-29T02:48:35.885Z,0
2022-12-29T02:49:37.404Z,0
2022-12-29T02:50:37.630Z,0
2022-12-29T02:51:38.615Z,0
2022-12-29T02:52:39.194Z,0
2022-12-29T02:53:40.419Z,0
2022-12-29T02:54:40.186Z,0
2022-12-29T02:55:40.398Z,0
2022-12-29T02:56:41.627Z,0
2022-12-29T02:57:41.897Z,0
2022-12-29T02:58:41.829Z,0
2022-12-29T02:59:42.767Z,0
2022-12-29T03:00:43.037Z,0
2022-12-29T03:01:45.366Z,0
2022-12-29T03:02:44.805Z,0
2022-12-29T03:03:45.568Z,0
2022-12-29T03:04:44.962Z,0
2022-12-29T03:05:46.180Z,0
2022-12-29T03:06:46.842Z,0
2022-12-29T03:07:47.484Z,0
2022-12-29T03:08:48.444Z,0
2022-12-29T03:09:50.046Z,0
2022-12-29T03:10:49.986Z,0
2022-12-29T03:11:50.946Z,0
2022-12-29T03:12:50.680Z,0
2022-12-29T03:13:51.630Z,0
2022-12-29T03:14:52.289Z,0
2022-12-29T03:15:53.790Z,0
2022-12-29T03:16:54.574Z,0
2022-12-29T03:17:54.701Z,0
2022-12-29T03:18:55.911Z,0
2022-12-29T03:19:55.836Z,0
2022-12-29T03:20:56.104Z,0
2022-12-29T03:21:56.058Z,0
2022-12-29T03:22:57.565Z,0
2022-12-29T03:23:57.855Z,0
2022-12-29T03:24:58.428Z,0
2022-12-29T03:25:58.083Z,0
2022-12-29T03:26:59.062Z,0
2022-12-29T03:27:59.594Z,0
2022-12-29T03:28:59.582Z,0
2022-12-29T03:30:00.239Z,0
2022-12-29T03:31:02.032Z,0
2022-12-29T03:32:02.398Z,0
2022-12-29T03:33:03.158Z,0
2022-12-29T03:34:04.397Z,0
2022-12-29T03:35:05.336Z,0
2022-12-29T03:36:05.316Z,0
2022-12-29T03:37:06.306Z,0
2022-12-29T03:38:06.354Z,0
2022-12-29T03:39:06.941Z,0
2022-12-29T03:40:07.559Z,0
2022-12-29T03:41:07.799Z,0
2022-12-29T03:42:08.034Z,0
2022-12-29T03:43:08.666Z,0
2022-12-29T03:44:09.122Z,0
2022-12-29T03:45:09.160Z,0
2022-12-29T03:46:10.259Z,0
2022-12-29T03:47:10.351Z,0
2022-12-29T03:48:11.381Z,0
2022-12-29T03:49:12.334Z,0
2022-12-29T03:50:13.236Z,0
2022-12-29T03:51:13.161Z,0
2022-12-29T03:52:14.657Z,0
2022-12-29T03:53:15.166Z,0
2022-12-29T03:54:15.599Z,0
2022-12-29T03:55:15.861Z,0
2022-12-29T03:56:15.955Z,0
2022-12-29T03:57:16.628Z,0
2022-12-29T03:58:17.511Z,0
2022-12-29T03:59:18.285Z,0
2022-12-29T04:00:19.039Z,0
2022-12-29T04:01:20.542Z,0
2022-12-29T04:02:21.013Z,0
2022-12-29T04:03:21.176Z,0
2022-12-29T04:04:22.840Z,0
2022-12-29T04:05:21.842Z,0
2022-12-29T04:06:22.038Z,0
2022-12-29T04:07:24.057Z,0
2022-12-29T04:08:22.733Z,0
2022-12-29T04:09:24.305Z,0
2022-12-29T04:10:24.926Z,0
2022-12-29T04:11:29.825Z,0
2022-12-29T04:12:25.414Z,0
2022-12-29T04:13:25.709Z,0
2022-12-29T04:14:25.937Z,0
2022-12-29T04:15:26.190Z,0
2022-12-29T04:16:26.755Z,0
2022-12-29T04:17:26.724Z,0
2022-12-29T04:18:26.974Z,0
2022-12-29T04:19:29.632Z,0
2022-12-29T04:20:29.059Z,0
2022-12-29T04:21:29.783Z,0
2022-12-29T04:22:30.292Z,0
2022-12-29T04:23:30.777Z,0
2022-12-29T04:24:32.130Z,0
2022-12-29T04:25:32.389Z,0
2022-12-29T04:26:32.366Z,0
2022-12-29T04:27:33.887Z,0
2022-12-29T04:28:34.207Z,0
2022-12-29T04:29:33.641Z,0
2022-12-29T04:30:35.080Z,0
2022-12-29T04:31:36.426Z,0
2022-12-29T04:32:36.962Z,0
2022-12-29T04:33:37.095Z,0
2022-12-29T04:34:36.749Z,0
2022-12-29T04:35:37.452Z,0
2022-12-29T04:36:41.507Z,0
2022-12-29T04:37:39.753Z,0
2022-12-29T04:38:39.986Z,0
2022-12-29T04:39:40.013Z,0
2022-12-29T04:40:40.026Z,0
2022-12-29T04:41:40.972Z,0
2022-12-29T04:42:40.906Z,0
2022-12-29T04:43:41.632Z,0
2022-12-29T04:44:50.869Z,0
2022-12-29T04:45:42.572Z,0
2022-12-29T04:46:44.187Z,0
2022-12-29T04:47:45.787Z,0
2022-12-29T04:48:45.775Z,0
2022-12-29T04:49:46.027Z,0
2022-12-29T04:50:46.240Z,0
2022-12-29T04:51:46.454Z,0
2022-12-29T04:52:46.664Z,0
2022-12-29T04:53:46.718Z,0
2022-12-29T04:54:47.690Z,0
2022-12-29T04:55:48.313Z,0
2022-12-29T04:56:48.507Z,0
2022-12-29T04:57:49.745Z,0
2022-12-29T04:58:49.981Z,0
2022-12-29T04:59:50.493Z,0
2022-12-29T05:00:50.473Z,0
2022-12-29T05:01:52.177Z,0
2022-12-29T05:02:53.454Z,0
2022-12-29T05:03:53.176Z,0
2022-12-29T05:04:53.837Z,0
2022-12-29T05:05:53.819Z,0
2022-12-29T05:06:54.758Z,0
2022-12-29T05:07:55.430Z,0
2022-12-29T05:08:56.386Z,0
2022-12-29T05:09:57.114Z,0
2022-12-29T05:10:58.736Z,0
2022-12-29T05:11:58.674Z,0
2022-12-29T05:12:58.308Z,0
2022-12-29T05:13:59.604Z,0
2022-12-29T05:15:00.537Z,0
2022-12-29T05:16:01.147Z,0
2022-12-29T05:17:01.149Z,0
2022-12-29T05:18:02.512Z,0
2022-12-29T05:19:03.008Z,0
2022-12-29T05:20:02.963Z,0
2022-12-29T05:21:03.609Z,0
2022-12-29T05:22:05.105Z,0
2022-12-29T05:23:05.615Z,0
2022-12-29T05:24:06.068Z,0
2022-12-29T05:25:07.101Z,0
2022-12-29T05:26:07.810Z,0
2022-12-29T05:27:09.075Z,0
2022-12-29T05:28:09.583Z,0
2022-12-29T05:29:10.137Z,0
2022-12-29T05:30:10.491Z,0
2022-12-29T05:31:11.220Z,0
2022-12-29T05:32:11.755Z,0
2022-12-29T05:33:13.614Z,0
2022-12-29T05:34:13.375Z,0
2022-12-29T05:35:14.621Z,0
2022-12-29T05:36:14.561Z,0
2022-12-29T05:37:16.070Z,0
2022-12-29T05:38:16.590Z,0
2022-12-29T05:39:17.101Z,0
2022-12-29T05:40:19.593Z,0
2022-12-29T05:41:19.426Z,0
2022-12-29T05:42:20.317Z,0
2022-12-29T05:43:20.565Z,0
2022-12-29T05:44:20.665Z,0
2022-12-29T05:45:20.606Z,0
2022-12-29T05:46:21.787Z,0
2022-12-29T05:47:23.043Z,0
2022-12-29T05:48:23.328Z,0
2022-12-29T05:49:24.067Z,0
2022-12-29T05:50:24.856Z,0
2022-12-29T05:51:25.571Z,0
2022-12-29T05:52:26.061Z,0
2022-12-29T05:53:26.688Z,0
2022-12-29T05:54:27.760Z,0
2022-12-29T05:55:30.136Z,0
2022-12-29T05:56:29.701Z,0
2022-12-29T05:57:29.634Z,0
2022-12-29T05:58:30.565Z,0
2022-12-29T05:59:31.479Z,0
2022-12-29T06:00:31.996Z,0
2022-12-29T06:01:32.301Z,0
2022-12-29T06:02:33.645Z,0
2022-12-29T06:03:34.006Z,0
2022-12-29T06:04:33.434Z,0
2022-12-29T06:05:34.627Z,0
2022-12-29T06:06:34.776Z,0
2022-12-29T06:07:35.269Z,0
2022-12-29T06:08:35.501Z,0
2022-12-29T06:09:35.879Z,0
2022-12-29T06:10:36.437Z,0
2022-12-29T06:11:36.420Z,0
2022-12-29T06:12:37.858Z,0
2022-12-29T06:13:37.514Z,0
2022-12-29T06:14:38.226Z,0
2022-12-29T06:15:39.522Z,0
2022-12-29T06:16:39.455Z,0
2022-12-29T06:17:40.038Z,0
2022-12-29T06:18:40.269Z,0
2022-12-29T06:19:40.469Z,0
2022-12-29T06:20:41.166Z,0
2022-12-29T06:21:42.091Z,0
2022-12-29T06:22:43.315Z,0
2022-12-29T06:23:44.079Z,0
2022-12-29T06:24:45.148Z,0
2022-12-29T06:25:46.229Z,0
2022-12-29T06:26:46.773Z,0
2022-12-29T06:27:47.275Z,0
2022-12-29T06:28:47.661Z,0
2022-12-29T06:29:47.601Z,4
2022-12-29T06:30:47.850Z,4
2022-12-29T06:31:48.716Z,0
2022-12-29T06:32:48.687Z,0
2022-12-29T06:33:55.834Z,4
2022-12-29T06:34:50.691Z,0
2022-12-29T06:35:50.373Z,4
2022-12-29T06:36:51.027Z,0
2022-12-29T06:37:52.176Z,4
2022-12-29T06:38:52.392Z,4
2022-12-29T06:39:52.651Z,8
2022-12-29T06:40:52.890Z,8
2022-12-29T06:41:52.871Z,4
2022-12-29T06:42:53.785Z,8
2022-12-29T06:43:54.999Z,8
2022-12-29T06:44:56.080Z,12
2022-12-29T06:45:56.901Z,8
2022-12-29T06:46:57.263Z,12
2022-12-29T06:47:57.490Z,12
2022-12-29T06:48:57.751Z,12
2022-12-29T06:49:58.320Z,20
2022-12-29T06:50:58.820Z,20
2022-12-29T06:51:59.763Z,24
2022-12-29T06:53:00.429Z,24
2022-12-29T06:54:00.449Z,32
2022-12-29T06:55:00.603Z,32
2022-12-29T06:56:02.139Z,36
2022-12-29T06:57:02.699Z,40
2022-12-29T06:58:02.635Z,40
2022-12-29T06:59:03.897Z,48
2022-12-29T07:00:04.436Z,52
2022-12-29T07:01:04.948Z,56
2022-12-29T07:02:05.614Z,60
2022-12-29T07:03:06.385Z,64
2022-12-29T07:04:06.767Z,72
2022-12-29T07:05:07.778Z,76
2022-12-29T07:06:07.996Z,80
2022-12-29T07:07:08.240Z,84
2022-12-29T07:08:08.565Z,96
2022-12-29T07:09:08.630Z,100
2022-12-29T07:10:09.324Z,104
2022-12-29T07:11:10.306Z,112
2022-12-29T07:12:11.319Z,120
2022-12-29T07:13:12.157Z,128
2022-12-29T07:14:15.671Z,136
2022-12-29T07:15:12.666Z,140
2022-12-29T07:16:13.356Z,148
2022-12-29T07:17:13.791Z,160
2022-12-29T07:18:13.783Z,164
2022-12-29T07:19:14.233Z,168
2022-12-29T07:20:15.200Z,176
2022-12-29T07:21:16.203Z,184
2022-12-29T07:22:16.876Z,192
2022-12-29T07:23:18.075Z,196
2022-12-29T07:24:19.780Z,204
2022-12-29T07:25:20.349Z,212
2022-12-29T07:26:20.644Z,220
2022-12-29T07:27:21.540Z,228
2022-12-29T07:28:23.322Z,236
2022-12-29T07:29:22.770Z,244
2022-12-29T07:30:23.453Z,252
2022-12-29T07:31:23.819Z,256
2022-12-29T07:32:23.573Z,264
2022-12-29T07:33:24.500Z,276
2022-12-29T07:34:25.138Z,284
2022-12-29T07:35:26.221Z,296
2022-12-29T07:36:29.382Z,312
2022-12-29T07:37:28.795Z,324
2022-12-29T07:38:27.767Z,344
2022-12-29T07:39:27.909Z,364
2022-12-29T07:40:28.736Z,384
2022-12-29T07:41:28.749Z,380
2022-12-29T07:42:29.276Z,388
2022-12-29T07:43:29.475Z,404
2022-12-29T07:44:30.392Z,420
2022-12-29T07:45:30.521Z,448
2022-12-29T07:47:08.583Z,504
2022-12-29T07:47:32.339Z,516
2022-12-29T07:48:33.002Z,540
2022-12-29T07:49:34.517Z,552
2022-12-29T07:50:35.207Z,552
2022-12-29T07:51:35.417Z,540
2022-12-29T07:52:36.001Z,528
2022-12-29T07:53:36.199Z,532
2022-12-29T07:54:36.724Z,548
2022-12-29T07:55:37.308Z,548
2022-12-29T07:56:38.572Z,552
2022-12-29T07:57:43.566Z,560
2022-12-29T07:58:39.621Z,564
2022-12-29T07:59:39.801Z,576
2022-12-29T08:00:39.715Z,588
2022-12-29T08:01:41.241Z,604
2022-12-29T08:02:41.137Z,608
2022-12-29T08:03:41.882Z,616
2022-12-29T08:04:42.108Z,644
2022-12-29T08:05:43.508Z,708
2022-12-29T08:06:43.164Z,776
2022-12-29T08:07:44.117Z,816
2022-12-29T08:08:45.084Z,828
2022-12-29T08:09:46.047Z,816
2022-12-29T08:10:46.178Z,788
2022-12-29T08:11:47.207Z,764
2022-12-29T08:12:47.764Z,756
2022-12-29T08:13:48.494Z,776
2022-12-29T08:14:49.736Z,836
2022-12-29T08:15:50.037Z,872
2022-12-29T08:16:50.041Z,924
2022-12-29T08:17:51.280Z,1012
2022-12-29T08:18:52.222Z,1020
2022-12-29T08:19:53.183Z,1032
2022-12-29T08:21:01.405Z,928
2022-12-29T08:21:54.348Z,912
2022-12-29T08:22:54.857Z,936
2022-12-29T08:23:54.782Z,1328
2022-12-29T08:24:55.983Z,1144
2022-12-29T08:25:56.348Z,1128
2022-12-29T08:26:57.319Z,1168
2022-12-29T08:27:57.889Z,1548
2022-12-29T08:28:58.852Z,1132
2022-12-29T08:29:59.216Z,1196
2022-12-29T08:30:59.507Z,1044
2022-12-29T08:32:00.887Z,1064
2022-12-29T08:33:00.530Z,1028
2022-12-29T08:34:01.458Z,1076
2022-12-29T08:35:02.109Z,1016
2022-12-29T08:36:02.590Z,1020
2022-12-29T08:37:02.535Z,1092
2022-12-29T08:38:03.451Z,1064
2022-12-29T08:39:04.207Z,1052
2022-12-29T08:40:05.165Z,1128
2022-12-29T08:41:05.403Z,1324
2022-12-29T08:42:05.978Z,1396
2022-12-29T08:43:06.289Z,1376
2022-12-29T08:44:07.246Z,1372
2022-12-29T08:45:07.796Z,1336
2022-12-29T08:46:07.974Z,1420
2022-12-29T08:47:08.150Z,1320
2022-12-29T08:48:09.076Z,1324
2022-12-29T08:49:09.566Z,1348
2022-12-29T08:50:09.227Z,1292
2022-12-29T08:51:10.500Z,1260
2022-12-29T08:52:10.894Z,1264
2022-12-29T08:53:11.401Z,1332
2022-12-29T08:54:11.354Z,1396
2022-12-29T08:55:11.653Z,1388
2022-12-29T08:56:16.260Z,1368
2022-12-29T08:57:13.566Z,1328
2022-12-29T08:58:13.548Z,1324
2022-12-29T08:59:14.507Z,1320
2022-12-29T09:00:14.706Z,1304
2022-12-29T09:01:15.199Z,1296
2022-12-29T09:02:20.440Z,1272
2022-12-29T09:03:31.329Z,1480
2022-12-29T09:04:28.714Z,1508
2022-12-29T09:05:27.114Z,1740
2022-12-29T09:06:27.495Z,1692
2022-12-29T09:07:27.679Z,1872
2022-12-29T09:08:36.650Z,2008
2022-12-29T09:09:29.607Z,2220
2022-12-29T09:10:29.522Z,2576
2022-12-29T09:11:30.782Z,2380
2022-12-29T09:12:36.686Z,2656
2022-12-29T09:13:32.489Z,2972
2022-12-29T09:14:32.414Z,3504
2022-12-29T09:15:33.362Z,3728
2022-12-29T09:16:34.197Z,4036
2022-12-29T09:17:33.979Z,3852
2022-12-29T09:18:35.594Z,3716
2022-12-29T09:19:34.530Z,3612
2022-12-29T09:20:35.806Z,3516
2022-12-29T09:21:36.359Z,3484
2022-12-29T09:22:36.876Z,3940
2022-12-29T09:23:38.123Z,3020
2022-12-29T09:24:38.795Z,2752
2022-12-29T09:25:39.760Z,2652
2022-12-29T09:26:46.779Z,2528
2022-12-29T09:27:41.940Z,2360
2022-12-29T09:28:42.478Z,2708
2022-12-29T09:29:42.977Z,2340
2022-12-29T09:30:43.477Z,2320
2022-12-29T09:31:44.564Z,2168
2022-12-29T09:32:55.431Z,2208
2022-12-29T09:33:44.961Z,2144
2022-12-29T09:34:44.929Z,2040
2022-12-29T09:35:46.224Z,2108
2022-12-29T09:36:47.526Z,2204
2022-12-29T09:37:48.061Z,2384
2022-12-29T09:38:48.331Z,2404
2022-12-29T09:39:54.417Z,3264
2022-12-29T09:40:48.679Z,2764
2022-12-29T09:41:49.903Z,2160
2022-12-29T09:42:50.171Z,2064
2022-12-29T09:43:50.487Z,2048
2022-12-29T09:44:50.921Z,2032
2022-12-29T09:45:51.845Z,2028
2022-12-29T09:46:53.716Z,2048
2022-12-29T09:47:54.144Z,2048
2022-12-29T09:48:55.385Z,2024
2022-12-29T09:49:55.347Z,2000
2022-12-29T09:50:56.299Z,1960
2022-12-29T09:51:57.655Z,1944
2022-12-29T09:52:58.154Z,1988
2022-12-29T09:53:58.087Z,2056
2022-12-29T09:55:19.068Z,2032
2022-12-29T09:56:00.318Z,1996
2022-12-29T09:57:00.668Z,1968
2022-12-29T09:58:00.671Z,1968
2022-12-29T09:59:01.960Z,2024
2022-12-29T10:00:03.200Z,2016
2022-12-29T10:01:06.385Z,2060
2022-12-29T10:02:05.430Z,2292
2022-12-29T10:03:04.795Z,2404
2022-12-29T10:04:04.705Z,2312
2022-12-29T10:05:05.691Z,2284
2022-12-29T10:06:06.359Z,2544
2022-12-29T10:07:42.794Z,2172
2022-12-29T10:08:42.750Z,2208
2022-12-29T10:09:42.981Z,2204
2022-12-29T10:10:43.497Z,2420
2022-12-29T10:11:43.204Z,2324
2022-12-29T10:12:44.163Z,2028
2022-12-29T10:13:44.882Z,2064
2022-12-29T10:14:45.375Z,1912
2022-12-29T10:15:45.026Z,1740
2022-12-29T10:16:46.327Z,1672
2022-12-29T10:17:46.191Z,1780
2022-12-29T10:18:47.523Z,1648
2022-12-29T10:19:48.777Z,1508
2022-12-29T10:20:48.756Z,1476
2022-12-29T10:21:49.251Z,1480
2022-12-29T10:22:49.670Z,1480
2022-12-29T10:23:49.976Z,1436
2022-12-29T10:24:51.216Z,1400
2022-12-29T10:25:51.749Z,1732
2022-12-29T10:26:51.994Z,1484
2022-12-29T10:27:53.096Z,1336
2022-12-29T10:28:54.490Z,1316
2022-12-29T10:29:54.781Z,1340
2022-12-29T10:30:54.993Z,1300
2022-12-29T10:31:56.089Z,1284
2022-12-29T10:32:56.743Z,1312
2022-12-29T10:33:57.249Z,1504
2022-12-29T10:34:56.886Z,1432
2022-12-29T10:35:58.397Z,1484
2022-12-29T10:36:58.333Z,1408
2022-12-29T10:37:59.201Z,1384
2022-12-29T10:38:59.692Z,1356
2022-12-29T10:39:59.338Z,1400
2022-12-29T10:41:00.881Z,1352
2022-12-29T10:42:01.112Z,1376
2022-12-29T10:43:01.405Z,1392
2022-12-29T10:44:01.752Z,1436
2022-12-29T10:45:02.048Z,1472
2022-12-29T10:46:03.309Z,1324
2022-12-29T10:47:03.670Z,1276
2022-12-29T10:48:05.060Z,1244
2022-12-29T10:49:05.617Z,1256
2022-12-29T10:50:05.838Z,1268
2022-12-29T10:51:12.599Z,1280
2022-12-29T10:52:07.834Z,1300
2022-12-29T10:53:08.468Z,1312
2022-12-29T10:54:09.148Z,1336
2022-12-29T10:55:10.423Z,1372
2022-12-29T10:56:10.658Z,1416
2022-12-29T10:57:10.611Z,1432
2022-12-29T10:58:11.672Z,1420
2022-12-29T10:59:12.210Z,1420
2022-12-29T11:00:12.762Z,1424
2022-12-29T11:01:13.472Z,1408
2022-12-29T11:02:14.812Z,1392
2022-12-29T11:03:14.705Z,1412
2022-12-29T11:04:15.015Z,1428
2022-12-29T11:05:15.573Z,1428
2022-12-29T11:06:16.073Z,1444
2022-12-29T11:07:26.822Z,1484
2022-12-29T11:08:17.552Z,1516
2022-12-29T11:09:17.795Z,1536
2022-12-29T11:10:18.341Z,1576
2022-12-29T11:11:19.293Z,1608
2022-12-29T11:12:19.502Z,1628
2022-12-29T11:13:19.750Z,1696
2022-12-29T11:14:20.749Z,1752
2022-12-29T11:15:21.320Z,1844
2022-12-29T11:16:22.099Z,2060
2022-12-29T11:17:22.522Z,2448
2022-12-29T11:18:23.536Z,3252
2022-12-29T11:19:23.480Z,2988
2022-12-29T11:20:23.708Z,3004
2022-12-29T11:21:24.351Z,2344
2022-12-29T11:22:25.587Z,2124
2022-12-29T11:23:26.563Z,1912
2022-12-29T11:24:26.797Z,1736
2022-12-29T11:25:28.028Z,1692
2022-12-29T11:26:33.756Z,1644
2022-12-29T11:27:28.363Z,1608
2022-12-29T11:28:29.041Z,1592
2022-12-29T11:29:29.601Z,1644
2022-12-29T11:30:30.154Z,1644
2022-12-29T11:31:30.978Z,1572
2022-12-29T11:32:39.029Z,1528
2022-12-29T11:33:32.237Z,1484
2022-12-29T11:34:32.788Z,1464
2022-12-29T11:35:32.756Z,1456
2022-12-29T11:36:32.740Z,1460
2022-12-29T11:37:33.986Z,1456
2022-12-29T11:38:35.055Z,1456
2022-12-29T11:39:34.706Z,1484
2022-12-29T11:40:35.646Z,1536
2022-12-29T11:41:36.588Z,1496
2022-12-29T11:42:37.247Z,1456
2022-12-29T11:43:37.171Z,1452
2022-12-29T11:44:38.740Z,1456
2022-12-29T11:45:39.808Z,1472
2022-12-29T11:46:40.411Z,1468
2022-12-29T11:47:40.466Z,1496
2022-12-29T11:48:40.851Z,1508
2022-12-29T11:49:41.360Z,1508
2022-12-29T11:50:41.572Z,1576
2022-12-29T11:51:41.801Z,1588
2022-12-29T11:52:42.457Z,1652
2022-12-29T11:53:43.136Z,2328
2022-12-29T11:54:43.374Z,1936
2022-12-29T11:55:44.305Z,2348
2022-12-29T11:56:51.555Z,2308
2022-12-29T11:57:45.194Z,2540
2022-12-29T11:58:46.554Z,2908
2022-12-29T11:59:46.832Z,2084
2022-12-29T12:00:46.843Z,2396
2022-12-29T12:01:47.903Z,2140
2022-12-29T12:02:54.353Z,1884
2022-12-29T12:03:49.594Z,2096
2022-12-29T12:04:49.822Z,2392
2022-12-29T12:05:50.493Z,2356
2022-12-29T12:06:51.342Z,2264
2022-12-29T12:07:51.578Z,2224
2022-12-29T12:08:52.676Z,2736
2022-12-29T12:09:52.892Z,2532
2022-12-29T12:10:53.655Z,2176
2022-12-29T12:11:54.641Z,2968
2022-12-29T12:12:54.744Z,3616
2022-12-29T12:13:56.352Z,3548
2022-12-29T12:14:56.659Z,3240
2022-12-29T12:16:03.338Z,4804
2022-12-29T12:16:57.639Z,4792
2022-12-29T12:17:57.910Z,3240
2022-12-29T12:18:58.924Z,3792
2022-12-29T12:20:00.201Z,3108
2022-12-29T12:21:00.422Z,4056
2022-12-29T12:22:00.637Z,2772
2022-12-29T12:23:01.576Z,2984
2022-12-29T12:24:02.177Z,3948
2022-12-29T12:25:02.704Z,4600
2022-12-29T12:26:02.382Z,4288
2022-12-29T12:27:03.916Z,4340
2022-12-29T12:28:03.860Z,4744
2022-12-29T12:29:04.622Z,4340
2022-12-29T12:30:05.921Z,4272
2022-12-29T12:31:06.667Z,4892
2022-12-29T12:32:07.374Z,5628
2022-12-29T12:33:07.078Z,5064
2022-12-29T12:34:08.390Z,6084
2022-12-29T12:35:09.076Z,6748
2022-12-29T12:36:10.092Z,6876
2022-12-29T12:37:09.774Z,7364
2022-12-29T12:38:11.035Z,7072
2022-12-29T12:39:10.882Z,6456
2022-12-29T12:40:12.252Z,6584
2022-12-29T12:41:15.617Z,7328
2022-12-29T12:42:12.806Z,7080
2022-12-29T12:43:13.003Z,6764
2022-12-29T12:44:14.244Z,6436
2022-12-29T12:45:14.244Z,5980
2022-12-29T12:46:15.071Z,5064
2022-12-29T12:47:15.789Z,4732
2022-12-29T12:48:16.018Z,4256
2022-12-29T12:49:15.888Z,3852
2022-12-29T12:50:17.863Z,3684
2022-12-29T12:51:18.302Z,3772
2022-12-29T12:52:18.870Z,3588
2022-12-29T12:53:19.567Z,3224
2022-12-29T12:54:20.856Z,2864
2022-12-29T12:55:20.613Z,2468
2022-12-29T12:56:21.076Z,2472
2022-12-29T12:57:22.025Z,2556
2022-12-29T12:58:22.993Z,2988
2022-12-29T12:59:23.257Z,3224
2022-12-29T13:00:24.286Z,3508
2022-12-29T13:01:25.089Z,3764
2022-12-29T13:02:26.520Z,3676
2022-12-29T13:03:26.913Z,3684
2022-12-29T13:04:26.994Z,4088
2022-12-29T13:05:33.547Z,4712
2022-12-29T13:06:29.105Z,4648
2022-12-29T13:07:29.604Z,4956
2022-12-29T13:08:29.842Z,3772
2022-12-29T13:09:30.210Z,3620
2022-12-29T13:10:31.551Z,4296
2022-12-29T13:11:31.204Z,4464
2022-12-29T13:12:32.728Z,4276
2022-12-29T13:13:33.270Z,4500
2022-12-29T13:14:33.151Z,4964
2022-12-29T13:15:34.502Z,4104
2022-12-29T13:16:35.474Z,4312
2022-12-29T13:17:35.827Z,4080
2022-12-29T13:18:36.480Z,3052
2022-12-29T13:19:37.232Z,3296
2022-12-29T13:20:38.284Z,3148
2022-12-29T13:21:38.492Z,3468
2022-12-29T13:22:38.821Z,3168
2022-12-29T13:23:39.753Z,1544
2022-12-29T13:24:40.730Z,1436
2022-12-29T13:25:40.977Z,1644
2022-12-29T13:26:41.928Z,3492
2022-12-29T13:27:48.164Z,4204
2022-12-29T13:28:43.713Z,4912
2022-12-29T13:29:44.386Z,5032
2022-12-29T13:30:44.097Z,5028
2022-12-29T13:31:45.713Z,4564
2022-12-29T13:32:45.793Z,3148
2022-12-29T13:33:46.019Z,2376
2022-12-29T13:34:46.350Z,2276
2022-12-29T13:35:46.564Z,4436
2022-12-29T13:36:47.634Z,2764
2022-12-29T13:37:48.613Z,1596
2022-12-29T13:38:49.343Z,3312
2022-12-29T13:39:49.988Z,3236
2022-12-29T13:40:49.983Z,3700
2022-12-29T13:41:50.201Z,3604
2022-12-29T13:42:50.463Z,3204
2022-12-29T13:43:50.687Z,3092
2022-12-29T13:44:51.041Z,3892
2022-12-29T13:45:52.342Z,4132
2022-12-29T13:46:53.406Z,4456
2022-12-29T13:47:53.039Z,4424
2022-12-29T13:48:53.681Z,4288
2022-12-29T13:49:54.151Z,4124
2022-12-29T13:50:55.120Z,4036
2022-12-29T13:51:55.132Z,3764
2022-12-29T13:52:56.443Z,3780
2022-12-29T13:53:56.709Z,2724
2022-12-29T13:54:57.292Z,1856
2022-12-29T13:55:57.524Z,1212
2022-12-29T13:56:57.731Z,924
2022-12-29T13:57:57.947Z,992
2022-12-29T13:58:58.627Z,1120
2022-12-29T13:59:59.729Z,1736
2022-12-29T14:01:00.100Z,2520
2022-12-29T14:02:01.707Z,2480
2022-12-29T14:03:02.529Z,2856
2022-12-29T14:04:03.142Z,2004
2022-12-29T14:05:02.785Z,2188
2022-12-29T14:06:03.017Z,3068
2022-12-29T14:07:03.950Z,3212
2022-12-29T14:08:05.184Z,2232
2022-12-29T14:09:05.415Z,2316
2022-12-29T14:10:05.241Z,3008
2022-12-29T14:11:06.185Z,2184
2022-12-29T14:12:06.609Z,2336